Date,TemperatureHighF,TemperatureAvgF,TemperatureLowF,DewpointHighF,DewpointAvgF,DewpointLowF,HumidityHigh,HumidityAvg,HumidityLow,PressureMaxIn,PressureMinIn,WindSpeedMaxMPH,WindSpeedAvgMPH,GustSpeedMaxMPH,PrecipitationSumIn
2013-4-1,53.0,41.2,33.0,40.0,28.3,22.0,83,61,43,30.28,29.91,7,2,14,0.00
2013-4-2,49.0,40.2,33.0,34.0,26.3,23.0,81,58,42,30.27,30.19,8,2,16,0.00
2013-4-3,44.0,39.9,34.0,34.0,30.8,25.0,87,70,51,30.33,30.24,14,2,18,0.00
2013-4-4,63.0,47.9,38.0,41.0,36.4,32.0,87,66,37,30.25,30.05,3,1,9,0.00
2013-4-5,66.0,52.5,37.0,47.0,41.0,34.0,89,67,44,30.09,29.71,21,8,34,0.00
2013-4-6,75.0,61.9,50.0,50.0,45.3,41.0,76,57,32,29.83,29.62,16,6,34,0.00
2013-4-7,74.0,60.5,45.0,57.0,48.9,39.0,90,67,40,29.84,29.59,21,6,34,0.00
2013-4-8,75.0,64.9,58.0,62.0,58.8,55.0,92,81,62,29.66,29.54,18,8,25,0.00
2013-4-9,71.0,54.4,32.0,62.0,49.7,29.0,92,84,72,29.98,29.48,19,9,32,1.03
2013-4-10,31.0,30.3,29.0,29.0,27.5,26.0,92,90,88,30.07,29.87,0,0,0,1.06
2013-4-11,38.0,30.9,26.0,31.0,26.6,23.0,90,84,71,29.91,29.77,7,1,17,0.01
2013-4-12,58.0,41.3,28.0,39.0,31.1,24.0,85,69,45,30.02,29.83,7,2,14,0.00
2013-4-13,67.0,51.5,31.0,53.0,41.2,28.0,92,70,52,30.04,29.51,19,7,30,0.00
2013-4-14,70.0,61.8,47.0,56.0,43.6,31.0,70,53,28,29.74,29.34,22,9,46,0.00
2013-4-15,55.0,47.7,41.0,39.0,34.0,29.0,77,60,44,29.96,29.72,6,1,14,0.00
2013-4-16,47.0,42.3,36.0,36.0,31.8,29.0,82,67,56,30.10,29.91,7,3,15,0.00
2013-4-17,45.0,42.0,40.0,43.0,39.4,37.0,93,90,78,30.03,29.70,8,1,14,0.93
2013-4-18,39.0,35.8,32.0,37.0,29.9,25.0,93,79,64,30.04,29.74,15,9,27,0.23
2013-4-19,59.0,42.3,28.0,39.0,29.9,23.0,81,64,41,30.07,29.97,10,3,24,0.01
2013-4-20,62.0,47.5,33.0,42.0,35.4,28.0,83,64,46,30.10,29.95,22,10,27,0.00
2013-4-21,67.0,58.3,49.0,49.0,43.1,39.0,74,58,44,30.09,29.99,19,9,30,0.00
2013-4-22,59.0,51.2,36.0,53.0,44.5,32.0,88,78,66,30.12,29.85,16,6,26,0.17
2013-4-23,36.0,33.1,30.0,33.0,28.7,27.0,92,84,72,30.24,30.07,8,4,16,0.46
2013-4-24,60.0,41.6,23.0,38.0,30.1,20.0,90,67,38,30.25,30.11,8,2,16,0.09
2013-4-25,69.0,51.2,31.0,44.0,37.1,27.0,88,62,35,30.26,30.01,17,4,27,0.01
2013-4-26,58.0,51.8,47.0,52.0,46.4,41.0,93,82,62,30.15,30.00,18,7,29,0.25
2013-4-27,70.0,55.0,49.0,55.0,49.8,47.0,94,84,56,30.15,29.96,6,0,10,0.19
2013-4-28,79.0,62.6,47.0,62.0,53.5,45.0,93,74,49,29.97,29.70,11,4,21,0.01
2013-4-29,84.0,69.3,49.0,65.0,56.8,45.0,91,67,46,29.75,29.53,16,5,30,0.01
2013-4-30,83.0,72.7,63.0,66.0,58.5,51.0,77,62,50,29.71,29.58,19,10,30,0.00